createdAt,value
2022-11-17T00:00:42.176Z,1.64
2022-11-17T00:03:18.135Z,1.64
2022-11-17T00:05:45.725Z,1.66
2022-11-17T00:08:13.616Z,1.72
2022-11-17T00:10:41.425Z,1.75
2022-11-17T00:13:29.369Z,1.79
2022-11-17T00:15:56.824Z,1.76
2022-11-17T00:18:42.931Z,1.78
2022-11-17T00:21:19.402Z,1.79
2022-11-17T00:23:48.201Z,1.74
2022-11-17T00:26:18.178Z,1.83
2022-11-17T00:28:46.210Z,1.75
2022-11-17T00:31:33.049Z,1.74
2022-11-17T00:34:07.145Z,1.78
2022-11-17T00:36:41.598Z,1.74
2022-11-17T00:39:10.757Z,1.68
2022-11-17T00:41:38.521Z,1.66
2022-11-17T00:44:07.018Z,1.67
2022-11-17T00:46:35.697Z,1.64
2022-11-17T00:49:04.403Z,1.63
2022-11-17T00:51:32.122Z,1.65
2022-11-17T00:54:00.015Z,1.70
2022-11-17T00:56:28.000Z,1.73
2022-11-17T00:58:55.846Z,1.70
2022-11-17T01:01:24.263Z,1.65
2022-11-17T01:04:02.998Z,1.62
2022-11-17T01:06:32.414Z,1.62
2022-11-17T01:09:05.510Z,1.64
2022-11-17T01:11:33.816Z,1.60
2022-11-17T01:14:02.136Z,1.61
2022-11-17T01:16:31.838Z,1.64
2022-11-17T01:19:01.565Z,1.60
2022-11-17T01:21:31.216Z,1.60
2022-11-17T01:24:01.030Z,1.54
2022-11-17T01:26:34.738Z,1.55
2022-11-17T01:29:03.854Z,1.53
2022-11-17T01:31:34.487Z,1.57
2022-11-17T01:34:02.117Z,1.63
2022-11-17T01:36:52.248Z,1.67
2022-11-17T01:39:20.483Z,1.66
2022-11-17T01:41:48.411Z,1.72
2022-11-17T01:44:49.161Z,1.71
2022-11-17T01:47:34.223Z,1.75
2022-11-17T01:50:21.944Z,1.72
2022-11-17T01:52:51.945Z,1.72
2022-11-17T01:55:22.400Z,1.75
2022-11-17T01:57:58.611Z,1.75
2022-11-17T02:00:27.530Z,1.72
2022-11-17T02:02:56.003Z,1.70
2022-11-17T02:05:51.910Z,1.61
2022-11-17T02:08:22.372Z,1.65
2022-11-17T02:10:52.197Z,1.69
2022-11-17T02:13:21.833Z,1.58
2022-11-17T02:15:49.380Z,1.58
2022-11-17T02:18:17.736Z,1.55
2022-11-17T02:20:45.474Z,1.51
2022-11-17T02:23:31.293Z,1.52
2022-11-17T02:26:10.939Z,1.49
2022-11-17T02:28:50.468Z,1.51
2022-11-17T02:31:50.047Z,1.50
2022-11-17T02:34:47.486Z,1.53
2022-11-17T02:37:32.968Z,1.55
2022-11-17T02:40:06.532Z,1.52
2022-11-17T02:43:00.437Z,1.62
2022-11-17T02:45:37.270Z,1.56
2022-11-17T02:48:11.856Z,1.62
2022-11-17T02:50:41.892Z,1.59
2022-11-17T02:53:10.146Z,1.58
2022-11-17T02:55:38.077Z,1.54
2022-11-17T02:58:12.005Z,1.52
2022-11-17T03:01:08.189Z,1.40
2022-11-17T03:03:47.544Z,1.33
2022-11-17T03:06:51.760Z,1.31
2022-11-17T03:09:36.755Z,1.33
2022-11-17T03:12:22.135Z,1.33
2022-11-17T03:15:03.608Z,1.36
2022-11-17T03:17:41.353Z,1.38
2022-11-17T03:20:16.372Z,1.37
2022-11-17T03:22:55.126Z,1.39
2022-11-17T03:25:27.097Z,1.40
2022-11-17T03:27:58.754Z,1.44
2022-11-17T03:30:29.945Z,1.42
2022-11-17T03:33:07.016Z,1.43
2022-11-17T03:35:39.552Z,1.41
2022-11-17T03:38:14.750Z,1.42
2022-11-17T03:40:46.951Z,1.42
2022-11-17T03:43:18.907Z,1.44
2022-11-17T03:45:53.009Z,1.40
2022-11-17T03:48:34.097Z,1.38
2022-11-17T03:51:15.739Z,1.40
2022-11-17T03:53:44.430Z,1.37
2022-11-17T03:56:25.010Z,1.32
2022-11-17T03:59:02.716Z,1.27
2022-11-17T04:01:33.557Z,1.24
2022-11-17T04:04:01.373Z,1.20
2022-11-17T04:06:29.173Z,1.21
2022-11-17T04:08:56.842Z,1.21
2022-11-17T04:11:42.732Z,1.24
2022-11-17T04:14:28.276Z,1.18
2022-11-17T04:16:56.024Z,1.19
2022-11-17T04:19:23.779Z,1.14
2022-11-17T04:21:51.548Z,1.12
2022-11-17T04:24:19.004Z,1.13
2022-11-17T04:27:05.456Z,1.15
2022-11-17T04:29:34.265Z,1.19
2022-11-17T04:32:01.713Z,1.22
2022-11-17T04:34:29.453Z,1.19
2022-11-17T04:36:57.122Z,1.16
2022-11-17T04:39:24.604Z,1.06
2022-11-17T04:41:57.289Z,1.03
2022-11-17T04:44:27.497Z,0.98
2022-11-17T04:46:56.587Z,0.98
2022-11-17T04:49:25.824Z,1.00
2022-11-17T04:51:54.043Z,1.02
2022-11-17T04:54:24.711Z,1.18
2022-11-17T04:56:53.606Z,1.21
2022-11-17T04:59:21.844Z,1.22
2022-11-17T05:01:50.030Z,1.18
2022-11-17T05:04:39.778Z,1.18
2022-11-17T05:07:08.322Z,1.16
2022-11-17T05:09:36.473Z,1.14
2022-11-17T05:12:22.936Z,1.15
2022-11-17T05:14:50.613Z,1.07
2022-11-17T05:17:18.243Z,1.02
2022-11-17T05:19:47.345Z,1.13
2022-11-17T05:22:40.233Z,1.18
2022-11-17T05:25:09.209Z,1.23
2022-11-17T05:27:37.583Z,1.23
2022-11-17T05:30:07.430Z,1.26
2022-11-17T05:32:35.350Z,1.24
2022-11-17T05:35:03.250Z,1.21
2022-11-17T05:37:31.118Z,1.18
2022-11-17T05:39:58.792Z,1.14
2022-11-17T05:42:26.371Z,1.10
2022-11-17T05:44:53.931Z,1.09
2022-11-17T05:47:21.668Z,1.03
2022-11-17T05:49:49.427Z,1.07
2022-11-17T05:52:17.161Z,1.05
2022-11-17T05:54:44.907Z,1.08
2022-11-17T05:57:16.668Z,1.09
2022-11-17T05:59:47.119Z,1.07
2022-11-17T06:02:25.158Z,1.04
2022-11-17T06:04:52.974Z,0.99
2022-11-17T06:07:20.839Z,0.98
2022-11-17T06:09:49.866Z,1.01
2022-11-17T06:12:17.558Z,1.04
2022-11-17T06:14:45.059Z,1.12
2022-11-17T06:17:22.869Z,1.17
2022-11-17T06:20:12.121Z,1.19
2022-11-17T06:22:44.046Z,1.17
2022-11-17T06:25:15.721Z,1.17
2022-11-17T06:27:43.680Z,1.25
2022-11-17T06:30:11.855Z,1.26
2022-11-17T06:32:43.724Z,1.28
2022-11-17T06:35:13.582Z,1.32
2022-11-17T06:37:41.051Z,1.36
2022-11-17T06:40:10.124Z,1.40
2022-11-17T06:42:57.776Z,1.41
2022-11-17T06:45:25.368Z,1.40
2022-11-17T06:47:54.622Z,1.40
2022-11-17T06:50:22.184Z,1.41
2022-11-17T06:52:49.719Z,1.43
2022-11-17T06:55:17.398Z,1.44
2022-11-17T06:57:50.317Z,1.44
2022-11-17T07:00:20.907Z,1.44
2022-11-17T07:02:48.307Z,1.41
2022-11-17T07:05:15.801Z,1.38
2022-11-17T07:07:43.667Z,1.36
2022-11-17T07:10:11.524Z,1.30
2022-11-17T07:12:39.224Z,1.46
2022-11-17T07:15:07.127Z,1.43
2022-11-17T07:17:34.675Z,1.41
2022-11-17T07:20:02.090Z,1.41
2022-11-17T07:22:29.959Z,1.42
2022-11-17T07:24:57.728Z,1.43
2022-11-17T07:27:25.176Z,1.43
2022-11-17T07:29:52.995Z,1.43
2022-11-17T07:32:20.495Z,1.48
2022-11-17T07:34:47.975Z,1.57
2022-11-17T07:37:15.696Z,1.52
2022-11-17T07:39:43.538Z,1.49
2022-11-17T07:42:11.017Z,1.48
2022-11-17T07:44:38.786Z,1.53
2022-11-17T07:47:06.240Z,1.53
2022-11-17T07:49:34.196Z,1.54
2022-11-17T07:52:02.085Z,1.54
2022-11-17T07:54:29.507Z,1.59
2022-11-17T07:56:57.171Z,1.58
2022-11-17T07:59:24.978Z,1.56
2022-11-17T08:01:52.755Z,1.59
2022-11-17T08:04:20.290Z,1.63
2022-11-17T08:06:47.954Z,1.61
2022-11-17T08:09:16.420Z,1.64
2022-11-17T08:11:44.172Z,1.65
2022-11-17T08:14:11.682Z,1.69
2022-11-17T08:16:39.155Z,1.74
2022-11-17T08:19:06.836Z,1.73
2022-11-17T08:21:36.859Z,1.70
2022-11-17T08:24:04.623Z,1.74
2022-11-17T08:26:32.025Z,1.78
2022-11-17T08:29:01.821Z,1.73
2022-11-17T08:31:29.333Z,1.80
2022-11-17T08:33:56.785Z,1.83
2022-11-17T08:36:24.413Z,1.87
2022-11-17T08:38:51.862Z,1.92
2022-11-17T08:41:19.891Z,1.95
2022-11-17T08:43:47.285Z,2.05
2022-11-17T08:46:15.028Z,2.12
2022-11-17T08:48:42.745Z,2.06
2022-11-17T08:51:14.278Z,2.10
2022-11-17T08:53:41.915Z,2.16
2022-11-17T08:56:11.968Z,2.18
2022-11-17T08:58:44.811Z,2.22
2022-11-17T09:01:18.484Z,2.24
2022-11-17T09:03:47.414Z,2.25
2022-11-17T09:06:16.806Z,2.25
2022-11-17T09:08:46.675Z,2.13
2022-11-17T09:11:16.631Z,2.24
2022-11-17T09:13:45.882Z,2.29
2022-11-17T09:16:14.599Z,2.22
2022-11-17T09:18:42.415Z,2.22
2022-11-17T09:21:13.343Z,2.23
2022-11-17T09:23:41.372Z,2.27
2022-11-17T09:26:12.186Z,2.23
2022-11-17T09:28:40.404Z,2.22
2022-11-17T09:31:13.856Z,2.17
2022-11-17T09:33:42.481Z,2.13
2022-11-17T09:36:11.023Z,2.10
2022-11-17T09:38:39.394Z,2.06
2022-11-17T09:41:16.235Z,2.06
2022-11-17T09:43:50.932Z,2.06
2022-11-17T09:46:27.641Z,2.00
2022-11-17T09:49:20.404Z,2.09
2022-11-17T09:51:49.984Z,1.98
2022-11-17T09:54:26.472Z,1.91
2022-11-17T09:56:57.934Z,1.98
2022-11-17T09:59:28.711Z,2.13
2022-11-17T10:01:56.481Z,2.06
2022-11-17T10:04:28.802Z,2.03
2022-11-17T10:06:57.749Z,1.99
2022-11-17T10:09:36.763Z,1.95
2022-11-17T10:12:17.642Z,2.05
2022-11-17T10:14:46.662Z,2.13
2022-11-17T10:17:14.241Z,2.14
2022-11-17T10:19:43.847Z,2.04
2022-11-17T10:22:20.959Z,2.07
2022-11-17T10:24:58.665Z,2.15
2022-11-17T10:27:34.325Z,2.13
2022-11-17T10:30:20.359Z,2.17
2022-11-17T10:32:50.617Z,2.17
2022-11-17T10:35:23.965Z,2.24
2022-11-17T10:37:52.868Z,2.27
2022-11-17T10:40:25.307Z,2.30
2022-11-17T10:42:57.671Z,2.30
2022-11-17T10:45:25.663Z,2.29
2022-11-17T10:48:08.751Z,2.27
2022-11-17T10:50:36.888Z,2.27
2022-11-17T10:53:46.002Z,2.37
2022-11-17T10:56:21.799Z,2.32
2022-11-17T10:59:08.342Z,2.36
2022-11-17T11:01:49.793Z,2.31
2022-11-17T11:04:34.952Z,2.26
2022-11-17T11:07:20.541Z,2.27
2022-11-17T11:10:06.706Z,2.18
2022-11-17T11:12:54.736Z,2.21
2022-11-17T11:15:24.705Z,2.28
2022-11-17T11:17:52.589Z,2.39
2022-11-17T11:20:44.269Z,2.40
2022-11-17T11:23:29.902Z,2.39
2022-11-17T11:26:11.214Z,2.31
2022-11-17T11:28:45.627Z,2.30
2022-11-17T11:31:52.164Z,2.24
2022-11-17T11:34:41.130Z,2.35
2022-11-17T11:37:10.190Z,2.45
2022-11-17T11:39:55.763Z,2.43
2022-11-17T11:42:47.401Z,2.42
2022-11-17T11:45:31.403Z,2.35
2022-11-17T11:48:08.358Z,2.38
2022-11-17T11:50:51.886Z,2.50
2022-11-17T11:53:48.512Z,2.40
2022-11-17T11:56:26.616Z,2.42
2022-11-17T11:59:02.473Z,2.39
2022-11-17T12:01:39.448Z,2.38
2022-11-17T12:04:38.102Z,2.38
2022-11-17T12:07:32.536Z,2.37
2022-11-17T12:10:08.166Z,2.29
2022-11-17T12:12:38.797Z,2.40
2022-11-17T12:15:18.279Z,2.44
2022-11-17T12:18:00.781Z,2.43
2022-11-17T12:20:32.019Z,2.41
2022-11-17T12:23:18.171Z,2.40
2022-11-17T12:25:54.212Z,2.37
2022-11-17T12:28:28.499Z,2.37
2022-11-17T12:31:09.462Z,2.39
2022-11-17T12:34:09.541Z,2.37
2022-11-17T12:36:37.515Z,2.38
2022-11-17T12:39:09.431Z,2.40
2022-11-17T12:41:48.688Z,2.37
2022-11-17T12:44:38.410Z,2.37
2022-11-17T12:47:40.061Z,2.55
2022-11-17T12:50:32.545Z,2.53
2022-11-17T12:53:09.569Z,2.57
2022-11-17T12:56:02.232Z,2.59
2022-11-17T12:58:46.044Z,2.56
2022-11-17T13:01:41.580Z,2.59
2022-11-17T13:04:15.937Z,2.58
2022-11-17T13:07:05.297Z,2.51
2022-11-17T13:09:36.396Z,2.49
2022-11-17T13:12:08.045Z,2.42
2022-11-17T13:14:50.981Z,2.38
2022-11-17T13:17:20.665Z,2.36
2022-11-17T13:19:48.233Z,2.34
2022-11-17T13:22:18.678Z,2.36
2022-11-17T13:24:48.587Z,2.32
2022-11-17T13:27:26.148Z,2.32
2022-11-17T13:30:12.972Z,2.38
2022-11-17T13:32:42.152Z,2.42
2022-11-17T13:35:23.266Z,2.40
2022-11-17T13:38:23.947Z,2.39
2022-11-17T13:40:53.570Z,2.36
2022-11-17T13:43:23.246Z,2.39
2022-11-17T13:45:53.240Z,2.34
2022-11-17T13:48:42.576Z,2.29
2022-11-17T13:51:20.333Z,2.21
2022-11-17T13:53:55.530Z,2.23
2022-11-17T13:56:24.797Z,2.23
2022-11-17T13:58:53.606Z,2.18
2022-11-17T14:01:24.151Z,2.16
2022-11-17T14:03:52.561Z,2.18
2022-11-17T14:06:20.312Z,2.21
2022-11-17T14:09:04.195Z,2.21
2022-11-17T14:11:32.077Z,2.18
2022-11-17T14:14:01.271Z,2.22
2022-11-17T14:16:34.698Z,2.23
2022-11-17T14:19:25.168Z,2.18
2022-11-17T14:22:03.784Z,2.12
2022-11-17T14:24:32.834Z,2.08
2022-11-17T14:27:00.379Z,2.04
2022-11-17T14:29:28.810Z,1.98
2022-11-17T14:31:57.094Z,1.98
2022-11-17T14:34:24.713Z,2.03
2022-11-17T14:36:54.981Z,2.10
2022-11-17T14:39:22.884Z,2.20
2022-11-17T14:41:51.141Z,2.20
2022-11-17T14:44:18.627Z,2.09
2022-11-17T14:46:46.472Z,1.97
2022-11-17T14:49:14.552Z,1.82
2022-11-17T14:51:42.717Z,1.77
2022-11-17T14:54:10.545Z,1.65
2022-11-17T14:56:38.324Z,1.76
2022-11-17T14:59:06.138Z,1.64
2022-11-17T15:01:34.765Z,1.62
2022-11-17T15:04:27.336Z,1.61
2022-11-17T15:06:52.297Z,1.67
2022-11-17T15:09:20.666Z,1.75
2022-11-17T15:11:48.432Z,1.66
2022-11-17T15:14:16.424Z,1.61
2022-11-17T15:16:44.540Z,1.53
2022-11-17T15:19:13.214Z,1.65
2022-11-17T15:21:41.449Z,1.60
2022-11-17T15:24:09.469Z,1.54
2022-11-17T15:26:37.865Z,1.62
2022-11-17T15:29:06.111Z,1.54
2022-11-17T15:31:33.542Z,1.48
2022-11-17T15:34:01.312Z,1.57
2022-11-17T15:36:29.107Z,1.54
2022-11-17T15:38:56.519Z,1.51
2022-11-17T15:41:25.460Z,1.55
2022-11-17T15:43:56.035Z,1.51
2022-11-17T15:46:23.567Z,1.48
2022-11-17T15:48:52.575Z,1.45
2022-11-17T15:51:22.540Z,1.44
2022-11-17T15:53:51.887Z,1.41
2022-11-17T15:56:21.731Z,1.44
2022-11-17T15:58:57.888Z,1.44
2022-11-17T16:01:44.241Z,1.51
2022-11-17T16:04:14.757Z,1.56
2022-11-17T16:06:44.685Z,1.62
2022-11-17T16:09:13.580Z,1.67
2022-11-17T16:11:41.819Z,1.73
2022-11-17T16:14:09.428Z,1.86
2022-11-17T16:16:38.712Z,1.78
2022-11-17T16:19:07.372Z,1.74
2022-11-17T16:21:34.938Z,1.70
2022-11-17T16:24:03.341Z,1.75
2022-11-17T16:26:31.300Z,1.81
2022-11-17T16:29:00.923Z,1.83
2022-11-17T16:31:31.148Z,1.87
2022-11-17T16:34:13.352Z,1.84
2022-11-17T16:36:42.252Z,1.79
2022-11-17T16:39:12.536Z,1.73
2022-11-17T16:41:42.131Z,1.71
2022-11-17T16:44:15.247Z,1.69
2022-11-17T16:46:44.803Z,1.62
2022-11-17T16:49:15.953Z,1.66
2022-11-17T16:51:48.529Z,1.83
2022-11-17T16:54:17.977Z,1.72
2022-11-17T16:56:46.286Z,1.79
2022-11-17T16:59:15.169Z,1.80
2022-11-17T17:01:42.935Z,1.89
2022-11-17T17:04:12.262Z,1.87
2022-11-17T17:06:42.077Z,1.86
2022-11-17T17:09:12.166Z,1.86
2022-11-17T17:11:40.424Z,1.79
2022-11-17T17:14:11.959Z,1.86
2022-11-17T17:16:39.877Z,1.85
2022-11-17T17:19:10.257Z,1.86
2022-11-17T17:21:39.534Z,1.86
2022-11-17T17:24:08.777Z,1.89
2022-11-17T17:26:37.587Z,1.93
2022-11-17T17:29:06.029Z,1.87
2022-11-17T17:31:36.265Z,1.79
2022-11-17T17:34:06.244Z,1.78
2022-11-17T17:36:36.537Z,1.87
2022-11-17T17:39:05.600Z,1.85
2022-11-17T17:41:39.509Z,1.84
2022-11-17T17:44:08.357Z,1.85
2022-11-17T17:46:38.550Z,1.93
2022-11-17T17:49:07.191Z,1.93
2022-11-17T17:51:44.043Z,1.91
2022-11-17T17:54:17.970Z,1.89
2022-11-17T17:56:46.737Z,1.92
2022-11-17T17:59:15.916Z,1.98
2022-11-17T18:01:46.310Z,2.03
2022-11-17T18:04:16.235Z,1.99
2022-11-17T18:06:48.691Z,2.06
2022-11-17T18:09:19.473Z,2.02
2022-11-17T18:11:50.470Z,1.94
2022-11-17T18:14:24.484Z,1.92
2022-11-17T18:16:53.496Z,1.88
2022-11-17T18:19:25.744Z,1.76
2022-11-17T18:21:56.077Z,1.92
2022-11-17T18:24:23.896Z,1.92
2022-11-17T18:26:51.633Z,1.80
2022-11-17T18:29:20.287Z,1.83
2022-11-17T18:31:49.431Z,1.77
2022-11-17T18:34:21.331Z,1.75
2022-11-17T18:36:53.571Z,1.61
2022-11-17T18:39:22.084Z,1.67
2022-11-17T18:41:50.364Z,1.57
2022-11-17T18:44:19.664Z,1.45
2022-11-17T18:46:47.873Z,1.39
2022-11-17T18:49:16.088Z,1.36
2022-11-17T18:51:44.333Z,1.32
2022-11-17T18:54:14.155Z,1.25
2022-11-17T18:56:42.418Z,1.28
2022-11-17T18:59:13.063Z,1.21
2022-11-17T19:01:42.950Z,1.17
2022-11-17T19:04:13.659Z,1.19
2022-11-17T19:06:42.094Z,1.16
2022-11-17T19:09:10.871Z,1.34
2022-11-17T19:11:39.530Z,1.26
2022-11-17T19:14:07.678Z,1.23
2022-11-17T19:16:41.041Z,1.28
2022-11-17T19:19:13.599Z,1.34
2022-11-17T19:21:42.171Z,1.32
2022-11-17T19:24:10.128Z,1.30
2022-11-17T19:26:37.734Z,1.39
2022-11-17T19:29:15.655Z,1.28
2022-11-17T19:31:46.176Z,1.35
2022-11-17T19:34:14.608Z,1.29
2022-11-17T19:36:42.256Z,1.21
2022-11-17T19:39:12.015Z,1.26
2022-11-17T19:41:39.962Z,1.29
2022-11-17T19:44:08.848Z,1.27
2022-11-17T19:46:37.762Z,1.19
2022-11-17T19:49:06.439Z,1.09
2022-11-17T19:51:38.969Z,1.11
2022-11-17T19:54:09.139Z,1.10
2022-11-17T19:56:38.269Z,1.11
2022-11-17T19:59:06.291Z,1.14
2022-11-17T20:01:34.693Z,1.09
2022-11-17T20:04:02.565Z,1.07
2022-11-17T20:06:37.104Z,1.14
2022-11-17T20:09:08.473Z,1.13
2022-11-17T20:11:36.523Z,1.19
2022-11-17T20:14:04.845Z,1.15
2022-11-17T20:16:32.742Z,1.09
2022-11-17T20:19:02.102Z,1.13
2022-11-17T20:21:31.253Z,1.15
2022-11-17T20:23:59.378Z,1.16
2022-11-17T20:26:30.178Z,1.22
2022-11-17T20:29:05.357Z,1.23
2022-11-17T20:31:35.006Z,1.13
2022-11-17T20:34:05.372Z,1.13
2022-11-17T20:36:34.506Z,1.15
2022-11-17T20:39:05.645Z,1.19
2022-11-17T20:41:33.706Z,1.07
2022-11-17T20:44:03.150Z,1.13
2022-11-17T20:46:31.030Z,1.18
2022-11-17T20:48:59.186Z,1.17
2022-11-17T20:51:27.093Z,1.13
2022-11-17T20:53:54.762Z,1.19
2022-11-17T20:56:22.768Z,1.17
2022-11-17T20:58:50.717Z,1.17
2022-11-17T21:01:21.547Z,1.19
2022-11-17T21:03:50.109Z,1.19
2022-11-17T21:06:18.726Z,1.02
2022-11-17T21:08:46.813Z,1.05
2022-11-17T21:11:38.116Z,0.98
2022-11-17T21:14:08.082Z,0.98
2022-11-17T21:16:38.705Z,1.00
2022-11-17T21:19:06.770Z,-140.69
2022-11-17T21:21:35.030Z,-140.69
2022-11-17T21:24:04.038Z,-140.69
2022-11-17T21:26:31.998Z,-140.69
2022-11-17T21:29:06.176Z,-140.69
2022-11-17T21:31:35.197Z,-140.69
2022-11-17T21:34:06.280Z,-140.69
2022-11-17T21:36:35.006Z,-140.69
2022-11-17T21:39:03.093Z,-140.69
2022-11-17T21:41:35.336Z,-140.69
2022-11-17T21:44:04.006Z,-140.69
2022-11-17T21:46:33.925Z,-140.69
2022-11-17T21:49:01.846Z,-140.69
2022-11-17T21:51:35.353Z,-140.69
2022-11-17T21:54:05.927Z,-140.69
2022-11-17T21:56:36.128Z,-140.69
2022-11-17T21:59:06.474Z,-140.69
2022-11-17T22:01:35.071Z,-140.69
2022-11-17T22:04:02.964Z,-140.69
2022-11-17T22:06:31.053Z,-140.69
2022-11-17T22:08:59.177Z,-140.69
2022-11-17T22:11:38.476Z,-140.69
2022-11-17T22:14:20.155Z,-140.69
2022-11-17T22:16:51.485Z,-140.69
2022-11-17T22:19:21.654Z,-140.69
2022-11-17T22:21:51.814Z,-140.69
2022-11-17T22:24:19.774Z,-140.69
2022-11-17T22:26:48.233Z,-140.69
2022-11-17T22:29:19.499Z,-140.69
2022-11-17T22:31:48.945Z,-140.69
2022-11-17T22:34:18.156Z,-140.69
2022-11-17T22:36:45.989Z,-140.69
2022-11-17T22:39:14.159Z,-140.69
2022-11-17T22:41:41.821Z,-140.69
2022-11-17T22:44:12.856Z,-140.69
2022-11-17T22:46:40.758Z,-140.69
2022-11-17T22:49:09.558Z,-140.69
2022-11-17T22:51:57.470Z,-140.69
2022-11-17T22:54:25.046Z,-140.69
2022-11-17T22:56:52.873Z,-140.69
2022-11-17T22:59:23.578Z,-140.69
2022-11-17T23:01:51.497Z,-140.69
2022-11-17T23:04:19.587Z,-140.69
2022-11-17T23:06:47.430Z,-140.69
2022-11-17T23:09:16.055Z,-140.69
2022-11-17T23:11:44.158Z,-140.69
2022-11-17T23:14:13.593Z,-140.69
2022-11-17T23:16:41.996Z,-140.69
2022-11-17T23:19:12.649Z,-140.69
2022-11-17T23:21:41.076Z,-140.69
2022-11-17T23:24:13.041Z,-140.69
2022-11-17T23:26:41.842Z,-140.69
2022-11-17T23:29:09.510Z,-140.69
2022-11-17T23:31:37.074Z,-140.69
2022-11-17T23:34:04.538Z,-140.69
2022-11-17T23:36:31.976Z,-140.69
2022-11-17T23:38:59.505Z,-140.69
2022-11-17T23:41:27.329Z,-140.69
2022-11-17T23:43:55.094Z,-140.69
2022-11-17T23:46:25.374Z,-140.69
2022-11-17T23:48:54.541Z,-140.69
2022-11-17T23:51:22.825Z,-140.69
2022-11-17T23:53:50.505Z,-140.69
2022-11-17T23:56:21.927Z,-140.69
2022-11-17T23:58:51.253Z,-140.69
